Time;durP1;ratioP1;P1;durP2;ratioP2;P2;SDS_P1;SDS_P2;PMS_P1;PMS_P2;Temp;Humidity;BMP_temperature;BMP_pressure;BME280_temperature;BME280_humidity;BME280_pressure;Samples;Min_cycle;Max_cycle;Signal;HPM_P1;HPM_P2
2022/10/29 00:01:53;;;;;;;16.13;6.93;;;17.70;99.90;;;;;;5032936;28;20405;-59
2022/10/29 00:04:18;;;;;;;18.10;7.15;;;17.70;99.90;;;;;;5030752;28;20479;-59
2022/10/29 00:06:46;;;;;;;18.07;7.03;;;17.60;99.90;;;;;;5030655;28;20475;-59
2022/10/29 00:09:11;;;;;;;15.48;6.53;;;17.40;99.90;;;;;;5031582;28;20943;-60
2022/10/29 00:11:37;;;;;;;15.83;6.33;;;17.40;99.90;;;;;;5029798;28;20803;-57
2022/10/29 00:14:02;;;;;;;15.33;6.57;;;17.30;99.90;;;;;;5027130;28;20395;-58
2022/10/29 00:16:34;;;;;;;19.20;6.50;;;17.40;99.90;;;;;;5028143;28;20461;-60
2022/10/29 00:18:59;;;;;;;15.05;5.75;;;17.30;99.90;;;;;;5024660;28;20395;-58
2022/10/29 00:21:25;;;;;;;15.32;5.68;;;17.30;99.90;;;;;;5027091;28;20719;-60
2022/10/29 00:23:51;;;;;;;19.90;6.00;;;17.40;99.90;;;;;;5028713;28;20717;-60
2022/10/29 00:26:19;;;;;;;18.38;6.22;;;17.40;99.90;;;;;;5027313;28;20411;-60
2022/10/29 00:28:46;;;;;;;15.40;6.03;;;17.30;99.90;;;;;;5029130;28;20481;-60
2022/10/29 00:31:17;;;;;;;17.25;5.85;;;17.30;99.90;;;;;;5030113;28;20390;-60
2022/10/29 00:33:44;;;;;;;14.57;5.97;;;17.30;99.90;;;;;;5031395;28;20383;-59
2022/10/29 00:36:12;;;;;;;13.27;5.70;;;17.30;99.90;;;;;;5031080;28;20387;-60
2022/10/29 00:38:38;;;;;;;17.17;6.53;;;17.30;99.90;;;;;;5030069;28;20426;-59
2022/10/29 00:41:05;;;;;;;15.02;5.65;;;17.30;99.90;;;;;;5033743;28;20387;-57
2022/10/29 00:43:36;;;;;;;21.88;6.38;;;17.20;99.90;;;;;;5032246;28;20849;-59
2022/10/29 00:46:06;;;;;;;15.00;5.55;;;17.10;99.90;;;;;;5033254;28;20391;-58
2022/10/29 00:48:44;;;;;;;18.25;6.18;;;17.10;99.90;;;;;;5033649;28;20375;-59
2022/10/29 00:51:13;;;;;;;19.60;6.70;;;17.10;99.90;;;;;;5035323;28;20621;-56
2022/10/29 00:53:42;;;;;;;20.60;6.85;;;17.10;99.90;;;;;;5034450;28;20390;-60
2022/10/29 00:56:08;;;;;;;16.03;6.23;;;17.00;99.90;;;;;;5033403;28;20463;-58
2022/10/29 00:58:34;;;;;;;12.43;5.40;;;17.00;99.90;;;;;;5031016;28;20571;-60
2022/10/29 01:01:00;;;;;;;17.42;6.03;;;17.00;99.90;;;;;;5030773;28;20433;-56
2022/10/29 01:03:25;;;;;;;17.95;6.18;;;17.00;99.90;;;;;;5030525;28;20395;-59
2022/10/29 01:05:52;;;;;;;18.15;5.93;;;17.00;99.90;;;;;;5031581;28;20596;-59
2022/10/29 01:08:19;;;;;;;17.17;6.28;;;17.00;99.90;;;;;;5030432;28;20383;-59
2022/10/29 01:11:20;;;;;;;18.07;6.33;;;16.90;99.90;;;;;;5031113;28;20502;-56
2022/10/29 01:14:18;;;;;;;15.63;5.78;;;16.90;99.90;;;;;;5028968;28;20552;-57
2022/10/29 01:16:59;;;;;;;17.10;5.95;;;16.90;99.90;;;;;;5028309;28;20458;-54
2022/10/29 01:20:00;;;;;;;16.13;5.50;;;17.00;99.90;;;;;;5024983;28;20419;-57
2022/10/29 01:22:49;;;;;;;16.38;5.35;;;16.90;99.90;;;;;;5024404;28;20418;-58
2022/10/29 01:25:29;;;;;;;17.38;5.50;;;16.90;99.90;;;;;;5023172;28;20383;-58
2022/10/29 01:28:04;;;;;;;18.98;5.53;;;16.90;99.90;;;;;;5024873;28;20666;-56
2022/10/29 01:30:54;;;;;;;16.25;5.95;;;16.80;99.90;;;;;;5025308;28;20407;-60
2022/10/29 01:33:54;;;;;;;18.23;5.70;;;16.70;99.90;;;;;;5028172;28;20687;-57
2022/10/29 01:36:52;;;;;;;20.73;6.22;;;16.60;99.90;;;;;;4987044;28;20461;-57
2022/10/29 01:39:36;;;;;;;17.70;5.97;;;16.50;99.90;;;;;;5031204;28;20411;-59
2022/10/29 01:42:18;;;;;;;19.02;5.88;;;16.60;99.90;;;;;;5029545;28;20668;-59
2022/10/29 01:44:52;;;;;;;19.20;5.85;;;16.50;99.90;;;;;;5031066;28;20399;-61
2022/10/29 01:47:20;;;;;;;18.38;6.15;;;16.50;99.90;;;;;;5030867;28;20723;-59
2022/10/29 01:49:51;;;;;;;18.23;5.57;;;16.40;99.90;;;;;;5028646;28;20434;-59
2022/10/29 01:52:19;;;;;;;17.95;5.55;;;16.40;99.90;;;;;;5028040;28;20950;-61
2022/10/29 01:54:46;;;;;;;18.52;5.63;;;16.40;99.90;;;;;;5029038;28;20779;-56
2022/10/29 01:57:24;;;;;;;19.27;5.70;;;16.40;99.90;;;;;;5029800;28;20538;-59
2022/10/29 01:59:50;;;;;;;15.95;5.40;;;16.30;99.90;;;;;;5031593;28;20406;-59
2022/10/29 02:02:44;;;;;;;16.40;5.68;;;16.30;99.90;;;;;;5031075;28;20433;-59
2022/10/29 02:05:36;;;;;;;14.82;5.18;;;16.30;99.90;;;;;;5032174;28;20726;-59
2022/10/29 02:08:20;;;;;;;18.67;5.50;;;16.30;99.90;;;;;;5031739;28;20762;-58
2022/10/29 02:11:00;;;;;;;18.25;5.15;;;16.30;99.90;;;;;;5029716;28;20431;-60
2022/10/29 02:13:53;;;;;;;19.73;6.18;;;16.30;99.90;;;;;;5029353;28;20474;-57
2022/10/29 02:16:19;;;;;;;18.00;6.13;;;16.30;99.90;;;;;;5017130;28;20683;-55
2022/10/29 02:18:47;;;;;;;16.48;5.47;;;16.30;99.90;;;;;;5025271;28;20511;-57
2022/10/29 02:21:18;;;;;;;18.20;6.22;;;16.30;99.90;;;;;;5025218;28;20679;-54
2022/10/29 02:23:44;;;;;;;11.35;5.10;;;16.20;99.90;;;;;;5026711;28;20539;-56
2022/10/29 02:26:10;;;;;;;20.05;6.25;;;16.30;99.90;;;;;;5028614;28;20663;-57
2022/10/29 02:28:35;;;;;;;14.95;5.20;;;16.20;99.90;;;;;;5028040;28;20429;-54
2022/10/29 02:31:01;;;;;;;18.65;6.50;;;16.20;99.90;;;;;;5027461;28;20387;-55
2022/10/29 02:33:27;;;;;;;15.47;5.77;;;16.10;99.90;;;;;;5026503;28;20383;-54
2022/10/29 02:35:52;;;;;;;15.83;5.37;;;16.10;99.90;;;;;;5028520;28;20383;-58
2022/10/29 02:38:18;;;;;;;14.98;5.90;;;16.20;99.90;;;;;;5029291;28;20407;-58
2022/10/29 02:40:43;;;;;;;14.77;5.57;;;16.10;99.90;;;;;;5028134;28;20391;-54
2022/10/29 02:43:09;;;;;;;21.80;6.47;;;16.10;99.90;;;;;;5029468;28;20417;-57
2022/10/29 02:45:34;;;;;;;17.13;6.03;;;16.10;99.90;;;;;;5031376;28;20398;-58
2022/10/29 02:48:00;;;;;;;17.33;5.63;;;16.10;99.90;;;;;;5030447;28;20395;-57
2022/10/29 02:50:25;;;;;;;19.70;6.80;;;16.10;99.90;;;;;;5030766;28;20403;-55
2022/10/29 02:52:51;;;;;;;18.33;6.63;;;16.10;99.90;;;;;;5033139;28;20399;-59
2022/10/29 02:55:17;;;;;;;17.63;6.57;;;16.00;99.90;;;;;;5036535;28;20414;-59
2022/10/29 02:57:43;;;;;;;17.65;6.72;;;16.00;99.90;;;;;;5036900;28;20666;-59
2022/10/29 03:00:10;;;;;;;20.08;6.65;;;15.90;99.90;;;;;;5037009;28;20415;-56
2022/10/29 03:02:35;;;;;;;18.55;6.70;;;15.90;99.90;;;;;;5034994;28;20537;-60
2022/10/29 03:05:01;;;;;;;18.50;7.20;;;15.90;99.90;;;;;;5033783;28;20406;-54
2022/10/29 03:07:26;;;;;;;16.80;6.57;;;15.90;99.90;;;;;;5033114;28;20401;-56
2022/10/29 03:09:52;;;;;;;24.48;7.32;;;15.90;99.90;;;;;;5033648;28;20629;-57
2022/10/29 03:12:18;;;;;;;15.87;6.80;;;15.90;99.90;;;;;;5034913;28;20516;-58
2022/10/29 03:14:43;;;;;;;14.47;6.00;;;15.90;99.90;;;;;;5034487;28;20426;-56
2022/10/29 03:17:09;;;;;;;18.50;6.22;;;15.90;99.90;;;;;;5034161;28;20390;-58
2022/10/29 03:19:34;;;;;;;15.23;5.87;;;16.00;99.90;;;;;;5036217;28;20488;-59
2022/10/29 03:22:00;;;;;;;16.23;6.57;;;16.00;99.90;;;;;;5036425;28;20682;-57
2022/10/29 03:24:25;;;;;;;11.97;6.23;;;16.00;99.90;;;;;;5035367;28;20391;-57
2022/10/29 03:26:51;;;;;;;19.58;7.15;;;16.00;99.90;;;;;;5035329;28;20517;-57
2022/10/29 03:29:16;;;;;;;21.07;8.60;;;16.00;99.90;;;;;;5035997;28;20411;-56
2022/10/29 03:31:42;;;;;;;15.13;7.63;;;15.90;99.90;;;;;;5036427;28;20396;-58
2022/10/29 03:34:07;;;;;;;21.33;7.83;;;15.90;99.90;;;;;;5035690;28;20659;-59
2022/10/29 03:36:33;;;;;;;19.50;7.03;;;15.90;99.90;;;;;;5034831;28;20387;-54
2022/10/29 03:38:58;;;;;;;17.95;6.57;;;15.90;99.90;;;;;;5034554;28;20426;-59
2022/10/29 03:41:24;;;;;;;22.77;8.13;;;15.90;99.90;;;;;;5035964;28;20551;-59
2022/10/29 03:43:50;;;;;;;14.23;6.27;;;15.90;99.90;;;;;;5035787;28;20418;-59
2022/10/29 03:46:15;;;;;;;19.90;6.95;;;15.90;99.90;;;;;;5035908;28;21024;-59
2022/10/29 03:48:41;;;;;;;16.30;6.93;;;15.90;99.90;;;;;;5035647;28;20435;-56
2022/10/29 03:51:06;;;;;;;22.30;7.60;;;15.90;99.90;;;;;;5035528;28;20423;-58
2022/10/29 03:53:34;;;;;;;19.92;7.25;;;15.90;99.90;;;;;;5035005;28;20426;-59
2022/10/29 03:56:00;;;;;;;23.93;7.03;;;15.80;99.90;;;;;;5033966;28;20445;-58
2022/10/29 03:58:26;;;;;;;17.42;7.30;;;15.80;99.90;;;;;;5033569;28;20574;-59
2022/10/29 04:00:57;;;;;;;15.70;6.57;;;15.80;99.90;;;;;;5032205;28;20402;-58
2022/10/29 04:03:24;;;;;;;19.60;7.88;;;15.80;99.90;;;;;;5031768;28;20694;-57
2022/10/29 04:05:49;;;;;;;11.95;5.65;;;15.80;99.90;;;;;;5033617;28;20791;-59
2022/10/29 04:08:15;;;;;;;17.33;7.03;;;15.90;99.90;;;;;;5034132;28;20394;-58
2022/10/29 04:10:45;;;;;;;22.73;7.57;;;15.90;99.90;;;;;;5034860;28;20407;-58
2022/10/29 04:13:10;;;;;;;14.07;6.30;;;15.90;99.90;;;;;;5034186;28;20395;-56
2022/10/29 04:15:36;;;;;;;18.90;6.97;;;15.90;99.90;;;;;;5032468;28;20402;-58
2022/10/29 04:18:01;;;;;;;13.32;5.72;;;15.90;99.90;;;;;;5031997;28;20383;-58
2022/10/29 04:20:27;;;;;;;13.63;6.30;;;15.90;99.90;;;;;;5031351;28;20403;-60
2022/10/29 04:22:52;;;;;;;17.92;6.47;;;15.90;99.90;;;;;;5031014;28;20570;-59
2022/10/29 04:25:18;;;;;;;12.33;5.40;;;15.90;99.90;;;;;;5029714;28;20449;-59
2022/10/29 04:27:43;;;;;;;17.13;6.50;;;16.00;99.90;;;;;;5028667;28;20418;-59
2022/10/29 04:30:09;;;;;;;18.42;6.50;;;15.90;99.90;;;;;;5029385;28;20415;-58
2022/10/29 04:32:35;;;;;;;16.53;7.30;;;15.90;99.90;;;;;;5030850;28;20405;-59
2022/10/29 04:35:00;;;;;;;20.93;6.63;;;15.90;99.90;;;;;;5030255;28;20446;-59
2022/10/29 04:37:28;;;;;;;15.77;5.53;;;15.80;99.90;;;;;;5029187;28;20415;-59
2022/10/29 04:39:54;;;;;;;13.82;5.80;;;15.80;99.90;;;;;;5030081;28;20577;-58
2022/10/29 04:42:19;;;;;;;15.30;6.10;;;15.80;99.90;;;;;;5029360;28;20543;-56
2022/10/29 04:44:45;;;;;;;18.85;6.60;;;15.90;99.90;;;;;;5028278;28;20614;-58
2022/10/29 04:47:10;;;;;;;17.60;7.07;;;15.80;99.90;;;;;;5030352;28;20486;-58
2022/10/29 04:49:36;;;;;;;16.37;5.97;;;15.70;99.90;;;;;;5030083;28;20728;-59
2022/10/29 04:52:01;;;;;;;15.77;6.43;;;15.70;99.90;;;;;;5029441;28;20402;-59
2022/10/29 04:54:27;;;;;;;13.77;6.17;;;15.70;99.90;;;;;;5027424;28;20658;-59
2022/10/29 04:56:52;;;;;;;17.80;6.70;;;15.70;99.90;;;;;;5027252;28;20413;-59
2022/10/29 04:59:18;;;;;;;20.80;8.03;;;15.70;99.90;;;;;;5027091;28;20485;-58
2022/10/29 05:01:43;;;;;;;19.50;7.78;;;15.60;99.90;;;;;;5025298;28;20445;-58
2022/10/29 05:04:09;;;;;;;19.10;7.57;;;15.60;99.90;;;;;;5026201;28;20394;-59
2022/10/29 05:06:35;;;;;;;19.80;7.67;;;15.60;99.90;;;;;;5025261;28;20387;-57
2022/10/29 05:09:00;;;;;;;16.45;7.93;;;15.50;99.90;;;;;;5021303;28;20671;-59
2022/10/29 05:11:26;;;;;;;18.48;8.93;;;15.50;99.90;;;;;;5020998;28;20490;-57
2022/10/29 05:13:51;;;;;;;16.10;7.63;;;15.50;99.90;;;;;;5023080;28;20376;-59
2022/10/29 05:16:17;;;;;;;16.48;7.35;;;15.50;99.90;;;;;;5022486;28;20486;-58
2022/10/29 05:18:42;;;;;;;22.27;8.63;;;15.50;99.90;;;;;;5022689;28;20795;-59
2022/10/29 05:21:08;;;;;;;16.65;8.00;;;15.50;99.90;;;;;;5020796;28;20481;-57
2022/10/29 05:23:33;;;;;;;17.57;7.80;;;15.50;99.90;;;;;;5024122;28;20405;-58
2022/10/29 05:25:59;;;;;;;17.33;8.40;;;15.60;99.90;;;;;;5026458;28;20379;-56
2022/10/29 05:28:24;;;;;;;16.13;8.30;;;15.60;99.90;;;;;;5027097;28;20488;-57
2022/10/29 05:30:52;;;;;;;15.57;7.60;;;15.60;99.90;;;;;;5026159;28;20655;-58
2022/10/29 05:33:20;;;;;;;16.13;8.20;;;15.70;99.90;;;;;;5026066;28;20383;-56
2022/10/29 05:35:46;;;;;;;20.75;10.55;;;15.70;99.90;;;;;;5025694;28;20590;-57
2022/10/29 05:38:13;;;;;;;27.40;10.90;;;15.60;99.90;;;;;;5025730;28;20497;-59
2022/10/29 05:40:39;;;;;;;26.63;11.65;;;15.60;99.90;;;;;;5027057;28;20444;-58
2022/10/29 05:43:05;;;;;;;16.77;10.45;;;15.50;99.90;;;;;;5023499;28;20701;-57
2022/10/29 05:45:30;;;;;;;19.17;9.95;;;15.40;99.90;;;;;;5024324;28;20387;-57
2022/10/29 05:47:57;;;;;;;17.67;9.15;;;15.50;99.90;;;;;;5022166;28;20382;-57
2022/10/29 05:50:24;;;;;;;20.50;9.85;;;15.40;99.90;;;;;;5021870;28;20939;-56
2022/10/29 05:52:57;;;;;;;18.60;9.07;;;15.50;99.90;;;;;;5020677;28;20417;-59
2022/10/29 05:55:24;;;;;;;23.17;9.55;;;15.50;99.90;;;;;;5022105;28;20387;-58
2022/10/29 05:57:53;;;;;;;14.90;7.60;;;15.40;99.90;;;;;;5022634;28;20508;-58
2022/10/29 06:00:19;;;;;;;19.42;8.40;;;15.40;99.90;;;;;;5021560;28;20790;-59
2022/10/29 06:02:44;;;;;;;15.65;7.18;;;15.40;99.90;;;;;;5024327;28;20387;-58
2022/10/29 06:05:10;;;;;;;16.87;7.70;;;15.50;99.90;;;;;;5026629;28;20477;-58
2022/10/29 06:07:35;;;;;;;14.10;7.35;;;15.50;99.90;;;;;;5024824;28;20838;-58
2022/10/29 06:10:01;;;;;;;17.40;7.77;;;15.50;99.90;;;;;;5026268;28;20407;-59
2022/10/29 06:12:31;;;;;;;19.27;8.00;;;15.50;99.90;;;;;;5026108;28;20390;-59
2022/10/29 06:14:56;;;;;;;16.27;7.97;;;15.50;99.90;;;;;;5027355;28;20473;-57
2022/10/29 06:17:22;;;;;;;16.63;7.80;;;15.40;99.90;;;;;;5026359;28;20815;-59
2022/10/29 06:19:47;;;;;;;19.03;7.90;;;15.40;99.90;;;;;;5024323;28;21021;-59
2022/10/29 06:22:13;;;;;;;19.37;7.77;;;15.40;99.90;;;;;;5024073;28;20787;-59
2022/10/29 06:24:38;;;;;;;15.10;7.90;;;15.40;99.90;;;;;;5024049;28;20395;-58
2022/10/29 06:27:04;;;;;;;20.45;8.48;;;15.50;99.90;;;;;;5025060;28;20689;-59
2022/10/29 06:29:29;;;;;;;14.20;7.57;;;15.50;99.90;;;;;;5024468;28;20472;-54
2022/10/29 06:31:55;;;;;;;16.73;7.47;;;15.40;99.90;;;;;;5024000;28;20503;-57
2022/10/29 06:34:20;;;;;;;14.27;7.20;;;15.40;99.90;;;;;;5024273;28;20386;-58
2022/10/29 06:36:46;;;;;;;17.95;7.93;;;15.40;99.90;;;;;;5022581;28;20386;-58
2022/10/29 06:39:11;;;;;;;22.30;8.93;;;15.40;99.90;;;;;;5042449;28;20397;-59
2022/10/29 06:41:37;;;;;;;13.68;7.25;;;15.20;99.90;;;;;;5024544;28;20541;-57
2022/10/29 06:44:02;;;;;;;16.63;7.60;;;15.20;99.90;;;;;;5024634;28;20447;-58
2022/10/29 06:46:28;;;;;;;19.33;8.07;;;15.20;99.90;;;;;;5023448;28;20398;-59
2022/10/29 06:48:53;;;;;;;19.48;8.30;;;15.20;99.90;;;;;;5022334;28;20472;-56
2022/10/29 06:51:19;;;;;;;13.73;7.87;;;15.20;99.90;;;;;;5022239;28;20794;-56
2022/10/29 06:53:44;;;;;;;13.57;7.27;;;15.20;99.90;;;;;;5041478;28;20377;-57
2022/10/29 06:56:10;;;;;;;15.20;7.57;;;15.20;99.90;;;;;;5023599;28;20809;-56
2022/10/29 06:58:36;;;;;;;16.43;7.77;;;15.30;99.90;;;;;;5021786;28;20464;-56
2022/10/29 07:01:01;;;;;;;15.87;8.00;;;15.30;99.90;;;;;;5021268;28;20742;-57
2022/10/29 07:03:27;;;;;;;13.07;7.43;;;15.30;99.90;;;;;;5020781;28;20421;-56
2022/10/29 07:05:57;;;;;;;16.43;8.60;;;15.30;99.90;;;;;;5023171;28;20429;-56
2022/10/29 07:08:23;;;;;;;13.50;8.25;;;15.30;99.90;;;;;;5022970;28;20564;-59
2022/10/29 07:10:52;;;;;;;17.58;8.85;;;15.30;99.90;;;;;;5039728;28;20561;-57
2022/10/29 07:13:18;;;;;;;23.10;10.80;;;15.30;99.90;;;;;;5023246;28;20467;-56
2022/10/29 07:15:43;;;;;;;22.80;10.38;;;15.30;99.90;;;;;;5020596;28;20563;-57
2022/10/29 07:18:10;;;;;;;20.07;9.90;;;15.30;99.90;;;;;;5015373;28;20566;-58
2022/10/29 07:20:38;;;;;;;19.17;9.55;;;15.30;99.90;;;;;;5033567;28;20600;-58
2022/10/29 07:23:04;;;;;;;16.33;8.50;;;15.40;99.90;;;;;;5032962;28;20808;-56
2022/10/29 07:25:31;;;;;;;20.93;10.37;;;15.40;99.90;;;;;;5014702;28;20793;-56
2022/10/29 07:28:10;;;;;;;13.88;8.15;;;15.30;99.90;;;;;;5014074;28;20440;-58
2022/10/29 07:30:36;;;;;;;16.38;8.32;;;15.30;99.90;;;;;;5014471;28;20416;-58
2022/10/29 07:33:02;;;;;;;16.38;8.77;;;15.40;99.90;;;;;;5016860;28;20463;-57
2022/10/29 07:35:27;;;;;;;22.88;11.27;;;15.40;99.90;;;;;;5018168;28;20398;-57
2022/10/29 07:37:58;;;;;;;24.48;14.15;;;15.40;99.90;;;;;;5020516;28;20681;-55
2022/10/29 07:40:23;;;;;;;27.67;18.48;;;15.20;99.90;;;;;;5024144;28;20508;-58
2022/10/29 07:42:53;;;;;;;31.45;17.63;;;15.00;99.90;;;;;;5025214;28;20475;-58
2022/10/29 07:45:19;;;;;;;23.77;16.08;;;15.00;99.90;;;;;;5021891;28;20393;-58
2022/10/29 07:47:44;;;;;;;24.63;16.15;;;15.00;99.90;;;;;;5023129;28;20511;-58
2022/10/29 07:50:10;;;;;;;21.60;16.00;;;15.10;99.90;;;;;;5021453;28;20521;-58
2022/10/29 07:52:36;;;;;;;28.58;18.42;;;15.10;99.90;;;;;;5020453;28;20481;-58
2022/10/29 07:55:01;;;;;;;25.13;16.63;;;15.10;99.90;;;;;;5017155;28;20614;-57
2022/10/29 07:57:27;;;;;;;27.90;18.60;;;15.00;99.90;;;;;;5016633;28;20533;-56
2022/10/29 07:59:53;;;;;;;22.65;16.83;;;15.00;99.90;;;;;;5036820;28;20836;-58
2022/10/29 08:02:19;;;;;;;26.87;19.43;;;15.00;99.90;;;;;;5020802;28;20477;-58
2022/10/29 08:04:44;;;;;;;26.80;21.47;;;14.90;99.90;;;;;;5039717;28;20389;-58
2022/10/29 08:07:10;;;;;;;28.50;20.83;;;14.80;99.90;;;;;;5019853;28;20651;-59
2022/10/29 08:09:36;;;;;;;30.67;21.77;;;14.80;99.90;;;;;;5021938;28;20899;-55
2022/10/29 08:12:03;;;;;;;29.05;22.30;;;14.80;99.90;;;;;;5022989;28;20447;-58
2022/10/29 08:14:29;;;;;;;27.80;22.17;;;14.70;99.90;;;;;;5043073;28;20381;-58
2022/10/29 08:16:55;;;;;;;30.60;22.48;;;14.70;99.90;;;;;;5023889;28;20459;-59
2022/10/29 08:19:21;;;;;;;26.15;19.33;;;14.70;99.90;;;;;;5025319;28;20451;-58
2022/10/29 08:21:46;;;;;;;27.17;20.40;;;14.80;99.90;;;;;;5025887;28;20389;-59
2022/10/29 08:24:12;;;;;;;23.97;18.20;;;14.90;99.90;;;;;;5026230;28;20396;-59
2022/10/29 08:26:38;;;;;;;19.77;17.17;;;15.00;99.90;;;;;;5023963;28;20628;-55
2022/10/29 08:29:03;;;;;;;19.10;16.80;;;15.10;99.90;;;;;;5024324;28;20697;-59
2022/10/29 08:31:29;;;;;;;23.40;17.65;;;15.20;99.90;;;;;;5042462;28;20443;-59
2022/10/29 08:33:54;;;;;;;26.60;19.67;;;15.20;99.90;;;;;;5024963;28;20437;-59
2022/10/29 08:36:20;;;;;;;23.67;16.50;;;15.20;99.90;;;;;;5042735;28;20430;-60
2022/10/29 08:38:46;;;;;;;21.00;16.87;;;15.30;99.90;;;;;;5041347;28;20515;-58
2022/10/29 08:41:38;;;;;;;20.05;16.42;;;15.40;99.90;;;;;;5023845;28;20674;-57
2022/10/29 08:44:19;;;;;;;28.40;20.20;;;15.40;99.90;;;;;;5024084;28;20417;-58
2022/10/29 08:46:53;;;;;;;20.60;16.02;;;15.30;99.90;;;;;;5024623;28;20706;-59
2022/10/29 08:49:45;;;;;;;22.05;15.48;;;15.30;99.90;;;;;;5022107;28;20972;-59
2022/10/29 08:52:23;;;;;;;26.77;17.77;;;15.40;99.90;;;;;;5041090;28;20601;-56
2022/10/29 08:55:16;;;;;;;21.58;16.15;;;15.40;99.90;;;;;;5025668;28;20409;-57
2022/10/29 08:58:17;;;;;;;29.97;18.00;;;15.30;99.90;;;;;;5035520;28;20488;-59
2022/10/29 09:00:43;;;;;;;22.97;15.97;;;15.30;99.90;;;;;;5028500;28;20466;-58
2022/10/29 09:03:11;;;;;;;24.43;16.30;;;15.40;99.90;;;;;;5026565;28;20472;-58
2022/10/29 09:06:07;;;;;;;28.23;17.48;;;15.40;99.90;;;;;;5025675;28;20559;-59
2022/10/29 09:08:52;;;;;;;28.27;18.60;;;15.40;99.90;;;;;;5032625;28;20476;-58
2022/10/29 09:11:52;;;;;;;29.42;18.45;;;15.30;99.90;;;;;;5039011;28;20857;-55
2022/10/29 09:14:48;;;;;;;34.58;21.30;;;15.30;99.90;;;;;;5021087;28;20386;-57
2022/10/29 09:17:58;;;;;;;32.20;19.05;;;15.10;99.90;;;;;;5020673;28;20393;-58
2022/10/29 09:20:41;;;;;;;30.90;18.48;;;15.10;99.90;;;;;;5016429;28;20397;-58
2022/10/29 09:23:33;;;;;;;33.83;19.35;;;15.10;99.90;;;;;;5017089;28;20381;-56
2022/10/29 09:26:08;;;;;;;32.33;21.20;;;15.10;99.90;;;;;;5020003;28;20427;-59
2022/10/29 09:28:43;;;;;;;41.20;22.17;;;15.10;99.90;;;;;;5037124;28;20447;-59
2022/10/29 09:31:27;;;;;;;36.63;22.45;;;15.00;99.90;;;;;;5021900;28;20462;-59
2022/10/29 09:33:55;;;;;;;35.13;22.02;;;15.00;99.90;;;;;;5019439;28;20536;-59
2022/10/29 09:36:22;;;;;;;37.17;22.88;;;15.00;99.90;;;;;;5022050;28;20409;-59
2022/10/29 09:39:01;;;;;;;37.13;23.33;;;15.10;99.90;;;;;;5022956;28;20534;-59
2022/10/29 09:41:30;;;;;;;37.28;23.38;;;15.10;99.90;;;;;;5022008;28;20800;-53
2022/10/29 09:44:17;;;;;;;34.03;22.13;;;15.20;99.90;;;;;;5018398;28;20999;-56
2022/10/29 09:47:22;;;;;;;38.42;23.27;;;15.20;99.90;;;;;;5024388;28;20386;-51
2022/10/29 09:50:20;;;;;;;25.90;18.85;;;15.40;99.90;;;;;;4999238;28;20409;-51
2022/10/29 09:52:47;;;;;;;26.45;19.13;;;15.80;99.90;;;;;;5024917;28;20487;-53
2022/10/29 09:55:30;;;;;;;32.70;22.55;;;16.10;99.90;;;;;;5027275;28;20455;-54
2022/10/29 09:57:56;;;;;;;31.17;21.77;;;16.20;99.90;;;;;;5027061;28;20910;-55
2022/10/29 10:00:25;;;;;;;23.88;18.63;;;16.10;99.90;;;;;;5026705;28;20454;-52
2022/10/29 10:03:09;;;;;;;33.20;22.05;;;16.10;99.90;;;;;;5026517;28;20484;-60
2022/10/29 10:05:54;;;;;;;29.35;20.77;;;16.10;99.90;;;;;;5026747;28;20409;-60
2022/10/29 10:08:19;;;;;;;31.63;20.30;;;16.20;99.90;;;;;;5044132;28;20397;-59
2022/10/29 10:10:54;;;;;;;30.70;20.47;;;15.90;99.90;;;;;;5025647;28;20402;-59
2022/10/29 10:13:23;;;;;;;31.02;21.13;;;15.90;99.90;;;;;;5027861;28;20542;-58
2022/10/29 10:15:55;;;;;;;31.05;20.38;;;15.80;99.90;;;;;;5026931;28;20386;-59
2022/10/29 10:18:24;;;;;;;29.57;18.47;;;15.80;99.90;;;;;;5025850;28;20378;-59
2022/10/29 10:21:11;;;;;;;34.45;21.55;;;15.80;99.90;;;;;;5026248;28;20389;-59
2022/10/29 10:23:45;;;;;;;30.58;19.95;;;15.70;99.90;;;;;;5025949;28;20393;-58
2022/10/29 10:26:33;;;;;;;19.65;15.60;;;15.80;99.90;;;;;;5025338;28;20392;-58
2022/10/29 10:29:18;;;;;;;31.23;20.58;;;16.00;99.90;;;;;;5022631;28;20378;-58
2022/10/29 10:31:54;;;;;;;21.90;16.15;;;16.10;99.90;;;;;;5037592;28;20386;-55
2022/10/29 10:34:24;;;;;;;29.75;19.33;;;16.20;99.90;;;;;;5023935;28;20419;-59
2022/10/29 10:36:54;;;;;;;27.35;18.95;;;16.40;99.90;;;;;;5041685;28;20693;-58
2022/10/29 10:39:22;;;;;;;31.80;21.30;;;16.30;99.90;;;;;;5025587;28;20425;-56
2022/10/29 10:41:49;;;;;;;33.80;21.25;;;16.30;99.90;;;;;;5026423;28;20385;-56
2022/10/29 10:44:15;;;;;;;31.85;22.33;;;16.10;99.90;;;;;;5026419;28;21039;-58
2022/10/29 10:46:43;;;;;;;30.05;20.25;;;16.10;99.90;;;;;;5030000;28;20381;-55
2022/10/29 10:49:15;;;;;;;33.45;20.02;;;16.10;99.90;;;;;;5046135;28;20408;-56
2022/10/29 10:52:02;;;;;;;29.00;18.90;;;16.10;99.90;;;;;;5027127;28;20884;-56
2022/10/29 10:54:40;;;;;;;28.58;18.35;;;16.20;99.90;;;;;;5023093;28;20457;-57
2022/10/29 10:57:09;;;;;;;33.20;17.88;;;16.20;99.90;;;;;;5028827;28;20400;-58
2022/10/29 10:59:45;;;;;;;27.67;16.63;;;16.20;99.90;;;;;;5027545;28;20415;-57
2022/10/29 11:02:20;;;;;;;16.58;12.40;;;16.10;99.90;;;;;;5026798;28;20797;-57
2022/10/29 11:04:54;;;;;;;25.42;15.48;;;16.20;99.90;;;;;;5026722;28;20475;-58
2022/10/29 11:07:23;;;;;;;26.42;16.50;;;16.30;99.90;;;;;;5026608;28;20455;-58
2022/10/29 11:09:51;;;;;;;19.05;12.35;;;16.20;99.90;;;;;;5028133;28;20429;-57
2022/10/29 11:12:41;;;;;;;21.90;13.27;;;16.30;99.90;;;;;;5029044;28;20377;-59
2022/10/29 11:15:13;;;;;;;24.33;13.82;;;16.50;99.90;;;;;;5032382;28;20396;-59
2022/10/29 11:17:46;;;;;;;29.63;15.18;;;16.50;99.90;;;;;;5032370;28;20377;-59
2022/10/29 11:20:23;;;;;;;25.20;14.90;;;16.50;99.90;;;;;;5046837;28;20610;-58
2022/10/29 11:23:10;;;;;;;18.33;11.27;;;16.50;99.90;;;;;;5027824;28;20430;-56
2022/10/29 11:25:43;;;;;;;12.90;8.75;;;16.50;99.90;;;;;;5024022;28;20373;-57
2022/10/29 11:28:22;;;;;;;13.10;8.88;;;16.70;99.90;;;;;;5022802;28;20895;-58
2022/10/29 11:30:58;;;;;;;24.25;12.95;;;16.90;99.90;;;;;;5039878;28;21100;-58
2022/10/29 11:33:34;;;;;;;18.85;11.65;;;17.00;99.90;;;;;;5022407;28;20467;-55
2022/10/29 11:36:21;;;;;;;15.95;10.18;;;16.90;99.90;;;;;;5039753;28;20452;-58
2022/10/29 11:38:49;;;;;;;16.23;9.65;;;16.90;99.90;;;;;;5043319;28;20401;-57
2022/10/29 11:41:56;;;;;;;12.88;8.55;;;17.00;99.90;;;;;;5024854;28;20822;-57
2022/10/29 11:44:25;;;;;;;12.05;8.05;;;17.10;99.90;;;;;;5043356;28;20609;-59
2022/10/29 11:47:17;;;;;;;20.50;11.98;;;17.20;99.90;;;;;;5025580;28;20809;-57
2022/10/29 11:50:09;;;;;;;16.92;10.70;;;17.20;99.90;;;;;;5027722;28;20413;-57
2022/10/29 11:52:52;;;;;;;15.57;9.70;;;17.10;99.90;;;;;;5025622;28;20615;-58
2022/10/29 11:56:00;;;;;;;23.63;12.95;;;17.10;99.90;;;;;;5041493;28;20446;-59
2022/10/29 11:58:40;;;;;;;20.08;10.90;;;17.10;99.90;;;;;;5001341;28;20382;-58
2022/10/29 12:01:24;;;;;;;22.08;12.48;;;17.00;99.90;;;;;;5040408;28;20389;-59
2022/10/29 12:04:16;;;;;;;15.50;9.57;;;17.10;99.90;;;;;;5021721;28;20403;-57
2022/10/29 12:07:09;;;;;;;25.58;13.20;;;17.10;99.90;;;;;;5039601;28;20424;-58
2022/10/29 12:09:56;;;;;;;23.80;12.15;;;17.10;99.90;;;;;;5024446;28;20463;-58
2022/10/29 12:12:52;;;;;;;25.52;11.95;;;17.10;99.90;;;;;;5022839;28;20385;-57
2022/10/29 12:15:25;;;;;;;16.50;10.15;;;17.00;99.90;;;;;;5021708;28;21047;-58
2022/10/29 12:17:57;;;;;;;19.30;10.73;;;17.10;99.90;;;;;;5020101;28;20444;-59
2022/10/29 12:20:34;;;;;;;13.27;8.27;;;17.20;99.90;;;;;;5017586;28;20801;-59
2022/10/29 12:23:08;;;;;;;22.40;11.63;;;17.40;99.90;;;;;;5036486;28;20385;-57
2022/10/29 12:25:54;;;;;;;24.77;11.17;;;17.40;99.90;;;;;;5033078;28;20472;-56
2022/10/29 12:28:29;;;;;;;17.48;8.85;;;17.40;99.90;;;;;;5017714;28;20385;-55
2022/10/29 12:30:57;;;;;;;11.90;7.25;;;17.40;99.90;;;;;;5016734;28;20408;-57
2022/10/29 12:33:42;;;;;;;25.17;11.50;;;17.50;99.90;;;;;;5035197;28;20385;-58
2022/10/29 12:36:27;;;;;;;15.77;8.50;;;17.50;99.90;;;;;;5036707;28;20436;-58
2022/10/29 12:38:55;;;;;;;20.67;10.10;;;17.50;99.90;;;;;;5018834;28;20406;-57
2022/10/29 12:41:21;;;;;;;14.93;8.93;;;17.60;99.90;;;;;;5039025;28;20454;-58
2022/10/29 12:43:48;;;;;;;15.23;8.38;;;17.70;99.90;;;;;;5041490;28;20381;-59
2022/10/29 12:46:28;;;;;;;23.02;11.55;;;17.70;99.90;;;;;;5026944;28;20474;-58
2022/10/29 12:49:07;;;;;;;12.52;7.43;;;17.60;99.90;;;;;;5027033;28;20393;-59
2022/10/29 12:51:53;;;;;;;15.70;7.65;;;17.60;99.90;;;;;;5028156;28;20942;-57
2022/10/29 12:54:40;;;;;;;20.35;10.27;;;17.70;99.90;;;;;;5045114;28;20420;-58
2022/10/29 12:57:11;;;;;;;17.17;8.43;;;17.70;99.90;;;;;;5046726;28;20373;-57